createdAt,value
2023-01-07T18:18:24.859Z,52.54
2023-01-07T18:35:15.002Z,51.19
2023-01-07T18:41:58.547Z,50.42
2023-01-07T18:48:42.097Z,49.56
2023-01-07T18:55:27.845Z,48.98
2023-01-07T19:02:16.415Z,49.44
2023-01-07T19:08:59.925Z,48.38
2023-01-07T19:15:44.691Z,48.12
2023-01-07T19:22:28.057Z,47.42
2023-01-07T19:29:13.907Z,47.60
2023-01-07T19:36:05.408Z,47.53
2023-01-07T19:42:48.847Z,47.12
2023-01-07T19:49:32.283Z,46.74
2023-01-07T19:56:16.969Z,46.89
2023-01-07T20:03:00.388Z,46.61
2023-01-07T20:09:44.121Z,46.42
2023-01-07T20:16:28.865Z,46.28
2023-01-07T20:23:12.211Z,46.37
2023-01-07T20:29:55.563Z,46.22
2023-01-07T20:36:40.297Z,46.25
2023-01-07T20:43:24.199Z,46.37
2023-01-07T20:50:09.935Z,46.39
2023-01-07T20:56:54.637Z,46.05
2023-01-07T21:03:40.317Z,46.25
2023-01-07T21:10:23.788Z,46.19
2023-01-07T21:17:08.523Z,46.14
2023-01-07T21:23:52.173Z,46.16
2023-01-07T21:30:35.640Z,45.09
2023-01-07T21:37:20.559Z,44.67
2023-01-07T21:44:04.111Z,44.77
2023-01-07T21:50:47.515Z,44.78
2023-01-07T21:57:33.746Z,44.59
2023-01-07T22:04:17.140Z,44.63
2023-01-07T22:11:00.546Z,44.49
2023-01-07T22:17:45.636Z,44.36
2023-01-07T22:24:29.405Z,44.33
2023-01-07T22:31:18.119Z,43.98
2023-01-07T22:38:04.079Z,44.16
2023-01-07T22:44:51.620Z,43.89
2023-01-07T22:51:41.480Z,44.30
2023-01-07T22:58:26.225Z,43.78
2023-01-07T23:05:09.953Z,43.93
2023-01-07T23:11:59.101Z,43.77
2023-01-07T23:18:43.836Z,43.62
2023-01-07T23:25:27.217Z,43.70
2023-01-07T23:32:12.422Z,43.38
2023-01-07T23:38:57.183Z,43.69
2023-01-07T23:45:40.628Z,43.43
2023-01-07T23:52:24.097Z,43.26
2023-01-07T23:59:09.405Z,43.39
